Time;durP1;ratioP1;P1;durP2;ratioP2;P2;SDS_P1;SDS_P2;PMS_P1;PMS_P2;Temp;Humidity;BMP_temperature;BMP_pressure;BME280_temperature;BME280_humidity;BME280_pressure;Samples;Min_cycle;Max_cycle;Signal;HPM_P1;HPM_P2
2022/05/17 00:02:08;;;;;;;5.35;3.15;;;;;;;14.90;67.88;100047.22;5029113;28;20035;-70
2022/05/17 00:04:34;;;;;;;7.65;2.95;;;;;;;14.90;67.85;100055.19;5030533;28;20497;-70
2022/05/17 00:07:01;;;;;;;6.88;3.03;;;;;;;14.88;67.75;100048.25;5030125;28;20108;-69
2022/05/17 00:09:26;;;;;;;3.72;2.50;;;;;;;14.85;68.22;100051.97;5029185;28;20037;-70
2022/05/17 00:11:52;;;;;;;7.75;3.20;;;;;;;14.81;67.93;100053.94;5029401;28;20487;-70
2022/05/17 00:14:18;;;;;;;8.85;3.65;;;;;;;14.78;68.11;100048.84;5028460;28;20056;-70
2022/05/17 00:16:45;;;;;;;4.55;2.95;;;;;;;14.74;68.00;100043.81;5023822;28;20111;-69
2022/05/17 00:19:11;;;;;;;4.15;2.63;;;;;;;14.72;68.00;100049.22;5028872;28;20040;-70
2022/05/17 00:21:37;;;;;;;5.15;3.17;;;;;;;14.67;68.25;100037.19;5029486;28;20080;-70
2022/05/17 00:24:05;;;;;;;7.07;2.90;;;;;;;14.65;68.47;100039.09;5028854;28;20029;-69
2022/05/17 00:26:34;;;;;;;7.65;3.75;;;;;;;14.64;68.39;100040.88;5028271;28;20033;-69
2022/05/17 00:29:00;;;;;;;5.60;3.00;;;;;;;14.65;68.60;100034.63;5028955;28;20505;-69
2022/05/17 00:31:25;;;;;;;5.60;2.90;;;;;;;14.66;68.45;100040.78;5028299;28;20065;-69
2022/05/17 00:33:50;;;;;;;4.50;2.95;;;;;;;14.68;68.23;100044.22;5028648;28;20072;-69
2022/05/17 00:36:16;;;;;;;9.25;3.30;;;;;;;14.64;68.08;100035.56;5027906;28;20438;-69
2022/05/17 00:38:41;;;;;;;6.40;3.50;;;;;;;14.61;68.24;100033.09;5028953;28;20033;-68
2022/05/17 00:41:06;;;;;;;6.80;3.13;;;;;;;14.60;68.59;100031.41;5029024;28;20034;-69
2022/05/17 00:46:45;;;;;;;5.78;2.80;;;;;;;14.54;68.73;100040.59;5027826;28;20036;-70
2022/05/17 00:49:15;;;;;;;6.95;3.63;;;;;;;14.46;69.20;100031.38;5028143;28;20038;-70
2022/05/17 00:51:42;;;;;;;10.60;4.20;;;;;;;14.43;69.18;100031.56;5028763;28;20083;-70
2022/05/17 00:54:13;;;;;;;7.43;3.63;;;;;;;14.37;69.03;100032.78;5029245;28;20052;-70
2022/05/17 00:56:57;;;;;;;7.97;3.45;;;;;;;14.35;69.03;100019.63;5028566;28;20699;-69
2022/05/17 00:59:23;;;;;;;5.20;3.08;;;;;;;14.38;68.79;100018.59;5028578;28;20037;-69
2022/05/17 01:01:50;;;;;;;6.13;2.67;;;;;;;14.41;68.83;100025.50;5011346;28;20088;-69
2022/05/17 01:04:21;;;;;;;6.55;3.05;;;;;;;14.41;68.79;100026.34;5028615;28;20045;-69
2022/05/17 01:07:08;;;;;;;4.30;2.70;;;;;;;14.41;68.88;100022.84;5004266;28;20461;-70
2022/05/17 01:09:34;;;;;;;10.02;3.85;;;;;;;14.38;68.82;100010.63;4989032;28;20038;-70
2022/05/17 01:11:59;;;;;;;10.93;2.92;;;;;;;14.37;68.88;100017.75;4989507;28;20034;-70
2022/05/17 01:17:09;;;;;;;9.23;3.15;;;;;;;14.27;68.83;100016.56;4988678;28;20040;-70
2022/05/17 01:19:37;;;;;;;9.57;3.20;;;;;;;14.28;69.26;100015.66;4989274;28;20113;-69
2022/05/17 01:22:03;;;;;;;4.88;2.92;;;;;;;14.29;68.77;100014.69;5002186;28;20396;-69
2022/05/17 01:24:28;;;;;;;7.32;4.32;;;;;;;14.28;69.45;100014.81;5008338;28;20104;-69
2022/05/17 01:27:01;;;;;;;12.07;5.18;;;;;;;14.26;68.97;100016.69;5002011;28;20034;-70
2022/05/17 01:29:26;;;;;;;6.82;3.05;;;;;;;14.23;69.38;100015.06;5011939;28;20149;-69
2022/05/17 01:31:51;;;;;;;8.70;3.45;;;;;;;14.24;69.38;100010.63;5012217;28;20124;-68
2022/05/17 01:34:17;;;;;;;7.13;2.92;;;;;;;14.27;69.27;100013.06;5012263;28;20455;-70
2022/05/17 01:36:43;;;;;;;13.75;4.05;;;;;;;14.26;69.51;100011.38;4997988;28;20487;-69
2022/05/17 01:39:09;;;;;;;9.65;3.55;;;;;;;14.22;69.13;100008.03;5012318;28;20030;-69
2022/05/17 01:41:34;;;;;;;6.20;3.08;;;;;;;14.13;69.71;100006.81;5012054;28;20034;-69
2022/05/17 01:44:00;;;;;;;6.45;2.72;;;;;;;14.07;70.00;100009.81;5012156;28;20573;-68
2022/05/17 01:46:26;;;;;;;7.07;2.70;;;;;;;14.05;70.45;100013.50;5011327;28;20120;-69
2022/05/17 01:48:52;;;;;;;9.75;3.33;;;;;;;14.05;69.73;100005.56;5010877;28;20483;-69
2022/05/17 01:51:18;;;;;;;7.97;3.72;;;;;;;14.03;70.17;100008.31;5012035;28;20092;-71
2022/05/17 01:53:44;;;;;;;7.75;2.90;;;;;;;14.03;69.82;99997.72;5012012;28;20034;-70
2022/05/17 01:56:09;;;;;;;14.93;3.53;;;;;;;13.98;70.09;100012.19;5011570;28;20517;-70
2022/05/17 01:58:36;;;;;;;10.40;3.08;;;;;;;13.98;69.63;100009.53;5011641;28;20040;-69
2022/05/17 02:01:03;;;;;;;5.45;3.30;;;;;;;13.99;69.45;100011.25;5011449;28;20037;-69
2022/05/17 02:03:28;;;;;;;5.60;2.70;;;;;;;13.98;69.71;100022.78;5011267;28;20100;-68
2022/05/17 02:05:54;;;;;;;7.63;3.10;;;;;;;13.96;69.59;100009.63;4994799;28;20050;-72
2022/05/17 02:08:19;;;;;;;7.53;3.17;;;;;;;13.93;69.26;100010.66;5011558;28;20030;-69
2022/05/17 02:10:44;;;;;;;4.65;2.92;;;;;;;13.90;69.84;100017.94;5011539;28;20042;-69
2022/05/17 02:13:10;;;;;;;4.53;3.03;;;;;;;13.85;70.11;100022.66;5013639;28;20038;-70
2022/05/17 02:15:36;;;;;;;8.70;3.13;;;;;;;13.80;70.36;100020.28;5011852;28;20048;-68
2022/05/17 02:18:02;;;;;;;6.35;2.95;;;;;;;13.80;70.29;100024.72;4993243;28;20096;-71
2022/05/17 02:20:27;;;;;;;8.88;3.40;;;;;;;13.78;69.76;100016.00;5011194;28;20030;-71
2022/05/17 02:22:53;;;;;;;6.75;3.22;;;;;;;13.72;70.40;100015.44;5011270;28;20084;-70
2022/05/17 02:25:18;;;;;;;7.30;3.45;;;;;;;13.69;70.08;100014.75;4977400;28;20112;-71
2022/05/17 02:27:43;;;;;;;6.50;2.80;;;;;;;13.69;70.63;100020.06;5010490;28;20034;-69
2022/05/17 02:30:11;;;;;;;6.05;3.13;;;;;;;13.69;70.29;100020.06;4993526;28;20487;-69
2022/05/17 02:32:36;;;;;;;6.45;2.45;;;;;;;13.71;70.63;100023.50;5011056;28;20117;-69
2022/05/17 02:35:03;;;;;;;6.03;3.08;;;;;;;13.73;69.90;100018.91;5010711;28;20118;-68
2022/05/17 02:37:28;;;;;;;9.85;3.13;;;;;;;13.72;70.51;100018.06;5004087;28;20034;-70
2022/05/17 02:39:54;;;;;;;5.72;2.60;;;;;;;13.73;70.13;100017.16;5010853;28;20041;-69
2022/05/17 02:42:20;;;;;;;6.88;2.85;;;;;;;13.72;69.80;100012.78;5011097;28;20036;-69
2022/05/17 02:44:45;;;;;;;6.43;3.05;;;;;;;13.75;70.21;100009.94;5011003;28;20046;-70
2022/05/17 02:47:11;;;;;;;11.07;3.55;;;;;;;13.74;69.65;100008.25;5010326;28;20041;-68
2022/05/17 02:49:38;;;;;;;4.47;2.65;;;;;;;13.76;70.15;100013.47;5011019;28;20384;-69
2022/05/17 02:52:04;;;;;;;7.47;3.10;;;;;;;13.74;70.04;100010.06;5011916;28;20026;-69
2022/05/17 02:54:29;;;;;;;4.45;3.08;;;;;;;13.71;70.17;100008.44;5011233;28;20052;-69
2022/05/17 02:56:55;;;;;;;7.28;2.95;;;;;;;13.69;70.18;100012.97;5009873;28;20037;-68
2022/05/17 02:59:21;;;;;;;4.85;2.78;;;;;;;13.67;70.32;100009.53;5010748;28;20030;-69
2022/05/17 03:01:47;;;;;;;6.63;3.17;;;;;;;13.67;69.84;100006.91;5010825;28;20440;-69
2022/05/17 03:04:13;;;;;;;7.60;2.75;;;;;;;13.65;70.73;100010.59;5010574;28;20030;-71
2022/05/17 03:06:42;;;;;;;5.47;2.70;;;;;;;13.63;70.83;100023.06;5010275;28;20057;-71
2022/05/17 03:09:09;;;;;;;4.70;3.08;;;;;;;13.62;70.78;100021.38;5030166;28;20068;-70
2022/05/17 03:11:36;;;;;;;10.48;3.55;;;;;;;13.61;70.35;100030.22;5030020;28;20033;-70
2022/05/17 03:14:01;;;;;;;7.50;3.63;;;;;;;13.61;70.36;100027.59;5032621;28;20043;-70
2022/05/17 03:16:31;;;;;;;4.30;2.78;;;;;;;13.59;70.59;100032.16;5029302;28;20033;-71
2022/05/17 03:19:00;;;;;;;8.32;2.90;;;;;;;13.58;70.85;100031.28;5029834;28;20048;-71
2022/05/17 03:21:26;;;;;;;5.53;2.60;;;;;;;13.58;70.66;100025.97;5029967;28;20033;-70
2022/05/17 03:23:51;;;;;;;9.80;3.63;;;;;;;13.63;70.62;100033.66;5029253;28;20064;-71
2022/05/17 03:26:17;;;;;;;7.78;3.50;;;;;;;13.66;70.76;100037.00;5028754;28;20029;-70
2022/05/17 03:28:42;;;;;;;5.78;2.80;;;;;;;13.68;70.11;100037.75;5029276;28;20037;-71
2022/05/17 03:31:09;;;;;;;5.40;2.65;;;;;;;13.70;70.02;100038.50;5030203;28;20486;-71
2022/05/17 03:33:34;;;;;;;6.45;2.95;;;;;;;13.75;69.79;100036.44;5029574;28;20033;-71
2022/05/17 03:36:00;;;;;;;6.55;3.10;;;;;;;13.79;69.77;100036.28;5028949;28;20040;-71
2022/05/17 03:38:26;;;;;;;6.70;3.17;;;;;;;13.83;69.94;100030.72;5029406;28;20037;-72
2022/05/17 03:40:52;;;;;;;8.55;2.88;;;;;;;13.87;69.57;100032.22;5029424;28;20083;-72
2022/05/17 03:43:19;;;;;;;4.53;2.42;;;;;;;13.88;70.01;100025.13;5029653;28;20119;-70
2022/05/17 03:45:45;;;;;;;6.97;2.97;;;;;;;13.88;69.57;100028.66;5029672;28;20038;-73
2022/05/17 03:48:10;;;;;;;4.38;2.47;;;;;;;13.88;69.51;100023.34;5028807;28;20116;-71
2022/05/17 03:50:36;;;;;;;8.85;3.53;;;;;;;13.91;70.27;100023.16;5029501;28;20040;-71
2022/05/17 03:53:02;;;;;;;5.13;2.38;;;;;;;13.93;69.43;100018.63;5029596;28;20067;-71
2022/05/17 03:55:27;;;;;;;6.97;2.78;;;;;;;13.99;69.54;100021.84;5029856;28;20037;-71
2022/05/17 03:57:53;;;;;;;5.18;2.65;;;;;;;14.04;69.59;100022.44;5029193;28;20398;-70
2022/05/17 04:00:18;;;;;;;4.95;2.92;;;;;;;14.10;69.48;100014.09;5030037;28;20398;-71
2022/05/17 04:02:44;;;;;;;9.15;3.33;;;;;;;14.13;69.52;100014.78;5029364;28;20029;-71
2022/05/17 04:05:10;;;;;;;6.07;2.53;;;;;;;14.17;69.22;100015.44;5032308;28;20036;-71
2022/05/17 04:07:35;;;;;;;7.10;2.75;;;;;;;14.24;69.25;100018.56;5046676;28;20088;-69
2022/05/17 04:10:00;;;;;;;6.28;2.55;;;;;;;14.26;68.91;100024.63;5049157;28;22186;-71
2022/05/17 04:12:26;;;;;;;6.43;2.67;;;;;;;14.31;68.94;100020.75;5049616;28;20482;-71
2022/05/17 04:14:53;;;;;;;8.32;3.38;;;;;;;14.35;68.74;100019.63;5049231;28;20051;-71
2022/05/17 04:17:19;;;;;;;5.65;2.50;;;;;;;14.36;68.67;100023.13;5048672;28;20025;-71
2022/05/17 04:19:44;;;;;;;6.35;3.22;;;;;;;14.37;69.01;100016.88;5048889;28;20068;-72
2022/05/17 04:22:11;;;;;;;5.60;2.55;;;;;;;14.42;68.97;100021.88;5052327;28;20041;-71
2022/05/17 04:24:38;;;;;;;9.80;2.70;;;;;;;14.52;68.57;100021.25;5064349;28;20040;-71
2022/05/17 04:27:04;;;;;;;5.95;3.05;;;;;;;14.62;67.87;100018.91;5063793;28;20463;-71
2022/05/17 04:29:29;;;;;;;6.85;2.80;;;;;;;14.69;67.95;100014.91;5056083;28;20463;-71
2022/05/17 04:31:55;;;;;;;4.80;2.42;;;;;;;14.73;67.84;100008.47;5054868;28;20044;-70
2022/05/17 04:34:20;;;;;;;4.57;2.25;;;;;;;14.78;67.70;100002.88;5054847;28;20482;-70
2022/05/17 04:36:46;;;;;;;7.15;2.90;;;;;;;14.81;67.48;99998.19;5051428;28;20052;-71
2022/05/17 04:39:11;;;;;;;7.88;3.28;;;;;;;14.87;67.77;100015.56;5054607;28;20029;-69
2022/05/17 04:41:37;;;;;;;6.05;2.35;;;;;;;14.95;67.25;100026.53;5054846;28;20113;-68
2022/05/17 04:44:03;;;;;;;7.47;2.58;;;;;;;14.98;67.03;100015.72;5052269;28;20033;-70
2022/05/17 04:46:28;;;;;;;8.25;3.42;;;;;;;15.05;67.08;100026.81;5049835;28;20037;-69
2022/05/17 04:48:53;;;;;;;9.00;3.63;;;;;;;15.07;66.93;100029.38;5049865;28;20080;-69
2022/05/17 04:51:19;;;;;;;8.73;2.60;;;;;;;15.14;66.90;100023.56;5038372;28;20029;-68
2022/05/17 04:53:44;;;;;;;5.05;2.63;;;;;;;15.20;66.81;100020.50;5033512;28;20534;-70
2022/05/17 04:56:12;;;;;;;10.05;3.70;;;;;;;15.25;66.50;100021.06;5029167;28;20064;-70
2022/05/17 04:58:38;;;;;;;5.80;2.60;;;;;;;15.33;66.43;100022.38;5008270;28;20030;-69
2022/05/17 05:01:04;;;;;;;6.00;2.63;;;;;;;15.39;66.06;100027.28;4994623;28;20044;-69
2022/05/17 05:03:30;;;;;;;8.90;2.78;;;;;;;15.46;66.02;100031.25;5013859;28;20488;-69
2022/05/17 05:05:56;;;;;;;9.73;3.30;;;;;;;15.54;65.83;100039.56;5012467;28;20042;-70
2022/05/17 05:08:22;;;;;;;6.65;3.13;;;;;;;15.61;65.45;100034.69;5012754;28;20102;-70
2022/05/17 05:10:48;;;;;;;8.38;3.55;;;;;;;15.64;65.51;100039.81;5013000;28;20380;-70
2022/05/17 05:13:21;;;;;;;11.32;3.35;;;;;;;15.67;65.26;100042.25;5018529;28;20095;-71
2022/05/17 05:15:47;;;;;;;3.78;2.55;;;;;;;15.73;65.10;100041.91;5032857;28;20088;-72
2022/05/17 05:18:12;;;;;;;4.70;2.50;;;;;;;15.79;64.93;100043.28;5032348;28;20037;-71
2022/05/17 05:20:41;;;;;;;5.53;2.55;;;;;;;15.84;65.07;100046.50;5032879;28;20109;-71
2022/05/17 05:23:07;;;;;;;7.68;3.65;;;;;;;15.87;65.30;100032.97;5033140;28;20491;-71
2022/05/17 05:25:33;;;;;;;4.72;3.00;;;;;;;15.94;65.16;100041.41;5033624;28;20128;-71
2022/05/17 05:27:59;;;;;;;6.43;3.28;;;;;;;15.98;65.32;100035.78;5033571;28;20033;-72
2022/05/17 05:30:24;;;;;;;6.03;3.25;;;;;;;16.02;65.18;100037.28;5026260;28;20038;-71
2022/05/17 05:32:50;;;;;;;9.05;3.22;;;;;;;16.09;65.53;100027.91;5014526;28;20030;-71
2022/05/17 05:35:17;;;;;;;4.97;2.03;;;;;;;16.19;64.88;100035.25;5014837;28;20034;-70
2022/05/17 05:37:42;;;;;;;5.78;2.50;;;;;;;16.28;64.96;100037.31;4995503;28;20030;-71
2022/05/17 05:40:10;;;;;;;7.22;2.47;;;;;;;16.40;64.77;100035.59;5015192;28;20418;-71
2022/05/17 05:42:36;;;;;;;4.90;2.20;;;;;;;16.48;64.65;100039.41;5015717;28;20065;-71
2022/05/17 05:45:02;;;;;;;9.07;2.97;;;;;;;16.57;64.49;100045.06;5012718;28;20117;-69
2022/05/17 05:47:27;;;;;;;8.25;3.42;;;;;;;16.64;64.07;100049.00;5011927;28;20040;-69
2022/05/17 05:49:53;;;;;;;6.38;2.92;;;;;;;16.66;63.84;100039.97;5003755;28;20046;-67
2022/05/17 05:52:18;;;;;;;7.68;3.35;;;;;;;16.71;63.73;100045.81;5007311;28;20030;-69
2022/05/17 05:54:44;;;;;;;7.35;2.95;;;;;;;16.77;63.44;100041.00;5010280;28;20038;-70
2022/05/17 05:57:09;;;;;;;6.82;2.75;;;;;;;16.86;63.22;100037.69;4993033;28;20522;-69
2022/05/17 05:59:35;;;;;;;6.90;2.95;;;;;;;16.97;63.06;100047.59;5011035;28;20748;-69
2022/05/17 06:02:00;;;;;;;5.47;2.58;;;;;;;17.08;63.16;100045.00;5010397;28;20376;-69
2022/05/17 06:04:27;;;;;;;21.42;4.30;;;;;;;17.15;63.38;100040.94;5009289;28;20570;-70
2022/05/17 06:06:54;;;;;;;10.52;2.88;;;;;;;17.30;62.47;100039.84;5009413;28;20037;-69
2022/05/17 06:09:19;;;;;;;8.93;3.55;;;;;;;17.47;61.69;100043.91;5011327;28;20106;-69
2022/05/17 06:11:44;;;;;;;12.48;3.30;;;;;;;17.56;61.33;100047.72;5010913;28;20115;-68
2022/05/17 06:14:10;;;;;;;10.65;2.53;;;;;;;17.63;61.01;100043.63;5012112;28;20045;-68
2022/05/17 06:16:35;;;;;;;5.40;2.38;;;;;;;17.69;61.32;100050.31;5011208;28;20061;-68
2022/05/17 06:19:01;;;;;;;5.75;2.47;;;;;;;17.76;61.09;100048.91;5010372;28;20037;-69
2022/05/17 06:21:26;;;;;;;6.18;2.60;;;;;;;17.85;60.92;100050.06;5011540;28;20033;-67
2022/05/17 06:23:51;;;;;;;7.40;1.83;;;;;;;17.92;60.59;100044.16;5011420;28;20058;-69
2022/05/17 06:26:17;;;;;;;5.85;1.92;;;;;;;17.97;60.41;100039.31;5006104;28;20056;-69
2022/05/17 06:28:42;;;;;;;4.80;2.65;;;;;;;18.07;60.39;100049.28;5011750;28;20049;-70
2022/05/17 06:31:07;;;;;;;4.38;2.25;;;;;;;18.16;60.39;100043.22;5011312;28;20037;-70
2022/05/17 06:33:33;;;;;;;3.78;2.47;;;;;;;18.26;60.64;100044.22;5011657;28;20034;-71
2022/05/17 06:35:58;;;;;;;4.10;2.35;;;;;;;18.39;60.70;100044.16;5009327;28;20054;-69
2022/05/17 06:38:23;;;;;;;5.75;2.10;;;;;;;18.50;60.45;100052.16;5009655;28;20030;-69
2022/05/17 06:40:49;;;;;;;6.72;2.33;;;;;;;18.57;59.66;100057.88;5011302;28;20060;-69
2022/05/17 06:43:14;;;;;;;6.93;2.35;;;;;;;18.61;59.57;100054.84;5011584;28;20083;-69
2022/05/17 06:45:40;;;;;;;8.00;2.20;;;;;;;18.73;59.37;100062.84;5011612;28;20399;-69
2022/05/17 06:48:06;;;;;;;7.47;2.90;;;;;;;18.83;59.21;100055.84;5010138;28;20156;-72
2022/05/17 06:50:32;;;;;;;9.02;2.83;;;;;;;18.90;59.67;100057.03;5010890;28;20049;-69
2022/05/17 06:52:58;;;;;;;5.53;2.10;;;;;;;18.95;59.79;100057.56;5010028;28;20034;-59
2022/05/17 06:55:24;;;;;;;6.97;2.63;;;;;;;19.07;59.14;100063.72;5011208;28;20053;-58
2022/05/17 06:57:50;;;;;;;6.43;2.40;;;;;;;19.18;58.62;100065.53;5010572;28;20038;-60
2022/05/17 07:00:19;;;;;;;8.30;2.55;;;;;;;19.25;58.75;100059.56;5011108;28;20034;-56
2022/05/17 07:02:45;;;;;;;4.88;2.00;;;;;;;19.35;58.34;100070.38;5010259;28;20085;-58
2022/05/17 07:05:11;;;;;;;3.78;2.42;;;;;;;19.33;58.33;100066.97;5012156;28;20058;-56
2022/05/17 07:07:37;;;;;;;4.82;2.85;;;;;;;19.40;58.64;100075.34;5009581;28;20034;-55
2022/05/17 07:15:31;;;;;;;3.40;2.10;;;;;;;19.59;58.84;100072.88;5030040;28;20503;-56
2022/05/17 07:18:00;;;;;;;4.65;2.65;;;;;;;19.65;58.73;100082.19;5011747;28;20116;-55
2022/05/17 07:20:26;;;;;;;7.35;2.63;;;;;;;19.58;58.48;100081.00;5029842;28;20033;-57
2022/05/17 07:22:52;;;;;;;5.90;2.45;;;;;;;19.63;58.79;100085.00;5011389;28;20398;-58
2022/05/17 07:25:17;;;;;;;3.33;1.90;;;;;;;19.72;58.97;100088.78;5027671;28;20029;-57
2022/05/17 07:27:43;;;;;;;5.53;2.72;;;;;;;19.74;58.60;100097.53;5028149;28;20049;-55
2022/05/17 07:30:09;;;;;;;6.45;2.40;;;;;;;19.80;58.42;100098.84;5029357;28;20725;-55
2022/05/17 07:32:34;;;;;;;4.53;2.13;;;;;;;19.69;58.05;100092.56;5029228;28;20034;-56
2022/05/17 07:34:59;;;;;;;5.95;2.47;;;;;;;19.69;59.15;100097.03;5028250;28;20041;-54
2022/05/17 07:37:25;;;;;;;6.22;2.40;;;;;;;19.68;58.54;100100.69;5026461;28;20064;-58
2022/05/17 07:39:50;;;;;;;7.97;2.25;;;;;;;19.71;58.11;100104.00;5026739;28;20048;-58
2022/05/17 07:42:15;;;;;;;6.68;3.63;;;;;;;19.75;59.53;100109.06;5026385;28;20542;-58
2022/05/17 07:44:41;;;;;;;9.50;3.05;;;;;;;19.74;58.21;100108.22;5026850;28;20116;-56
2022/05/17 07:47:06;;;;;;;6.57;3.05;;;;;;;19.83;58.38;100110.13;5026346;28;20580;-72
2022/05/17 07:49:33;;;;;;;10.38;3.95;;;;;;;19.81;59.14;100111.22;5025056;28;20048;-72
2022/05/17 07:51:58;;;;;;;7.18;2.78;;;;;;;19.79;60.26;100106.03;5025898;28;20045;-73
2022/05/17 07:54:24;;;;;;;12.18;2.45;;;;;;;19.77;60.60;100113.31;5026118;28;20533;-71
2022/05/17 07:56:49;;;;;;;7.15;3.00;;;;;;;19.80;58.60;100106.88;5025373;28;20061;-72
2022/05/17 07:59:14;;;;;;;5.60;2.17;;;;;;;19.84;58.35;100114.53;5025989;28;20034;-70
2022/05/17 08:01:40;;;;;;;9.60;2.90;;;;;;;19.85;58.67;100108.19;5025105;28;20412;-70
2022/05/17 08:04:05;;;;;;;4.63;2.38;;;;;;;19.84;59.94;100103.81;5025056;28;20403;-72
2022/05/17 08:06:31;;;;;;;6.75;2.80;;;;;;;19.89;59.26;100108.78;5025316;28;20116;-71
2022/05/17 08:08:56;;;;;;;5.10;1.88;;;;;;;19.95;58.74;100109.09;5025659;28;20045;-71
2022/05/17 08:11:24;;;;;;;7.20;3.00;;;;;;;19.97;58.12;100110.81;5026709;28;20406;-71
2022/05/17 08:13:49;;;;;;;5.68;2.42;;;;;;;20.00;58.16;100111.41;5022252;28;20041;-71
2022/05/17 08:16:15;;;;;;;5.40;2.10;;;;;;;20.00;58.28;100113.25;5024990;28;20099;-70
2022/05/17 08:18:41;;;;;;;5.70;2.63;;;;;;;19.95;58.52;100116.28;5026882;28;20399;-70
2022/05/17 08:21:07;;;;;;;7.72;2.75;;;;;;;19.97;58.22;100113.50;5010183;28;20030;-70
2022/05/17 08:23:33;;;;;;;6.90;2.90;;;;;;;19.94;58.39;100115.44;5029124;28;20033;-71
2022/05/17 08:28:42;;;;;;;45.65;7.43;;;;;;;20.03;58.91;100113.81;5014030;28;20048;-70
2022/05/17 08:31:10;;;;;;;13.10;3.22;;;;;;;20.06;58.66;100108.22;5011215;28;20033;-69
2022/05/17 08:33:36;;;;;;;4.70;2.42;;;;;;;20.11;58.67;100110.53;5028453;28;20411;-68
2022/05/17 08:36:08;;;;;;;5.22;2.30;;;;;;;20.17;59.05;100110.00;5030236;28;20037;-68
2022/05/17 08:38:38;;;;;;;5.38;2.75;;;;;;;20.19;59.56;100101.84;5032577;28;20095;-72
2022/05/17 08:41:09;;;;;;;8.68;2.30;;;;;;;20.20;59.90;100103.53;5032962;28;20029;-73
2022/05/17 08:44:00;;;;;;;6.63;2.90;;;;;;;20.25;59.66;100101.31;5032928;28;20034;-72
2022/05/17 08:46:43;;;;;;;8.90;3.08;;;;;;;20.17;59.97;100104.63;5032623;28;20061;-74
2022/05/17 08:49:31;;;;;;;8.48;3.35;;;;;;;20.16;59.76;100102.97;5032984;28;20048;-74
2022/05/17 08:52:09;;;;;;;3.63;1.90;;;;;;;20.07;59.63;100101.03;5031524;28;20041;-73
2022/05/17 08:54:51;;;;;;;6.97;2.60;;;;;;;20.09;58.79;100104.44;5032243;28;20033;-70
2022/05/17 08:57:40;;;;;;;4.78;1.98;;;;;;;20.15;58.61;100090.53;5031673;28;20123;-70
2022/05/17 09:00:12;;;;;;;7.43;3.83;;;;;;;20.16;58.10;100094.94;5012832;28;20042;-71
2022/05/17 09:02:38;;;;;;;5.95;2.55;;;;;;;20.22;58.27;100083.69;5012586;28;20110;-72
2022/05/17 09:05:25;;;;;;;5.93;2.10;;;;;;;20.44;57.86;100089.91;5012459;28;20033;-71
2022/05/17 09:08:28;;;;;;;5.70;3.03;;;;;;;20.62;57.07;100082.97;5012217;28;20307;-70
2022/05/17 09:11:02;;;;;;;8.98;3.05;;;;;;;20.76;56.62;100084.47;5012597;28;20038;-71
2022/05/17 09:13:40;;;;;;;6.40;4.30;;;;;;;20.72;55.75;100086.56;5011092;28;20038;-71
2022/05/17 09:16:05;;;;;;;5.90;3.97;;;;;;;20.98;55.28;100080.75;4976190;28;20039;-69
2022/05/17 09:18:31;;;;;;;6.80;3.33;;;;;;;21.27;54.90;100090.75;5003144;28;20048;-71
2022/05/17 09:20:57;;;;;;;8.63;3.15;;;;;;;21.53;54.39;100091.94;5012655;28;20038;-73
2022/05/17 09:23:22;;;;;;;11.60;3.03;;;;;;;21.70;53.75;100089.56;5012255;28;20046;-71
2022/05/17 09:25:47;;;;;;;10.02;3.25;;;;;;;21.83;53.44;100091.00;5011936;28;20061;-70
2022/05/17 09:28:22;;;;;;;2.95;1.83;;;;;;;22.07;52.72;100097.78;5011814;28;20044;-71
2022/05/17 09:30:48;;;;;;;11.37;2.80;;;;;;;22.25;51.23;100089.91;5011999;28;20107;-71
2022/05/17 09:33:19;;;;;;;6.75;2.97;;;;;;;22.31;51.01;100088.47;5012190;28;20355;-71
2022/05/17 09:35:57;;;;;;;4.63;2.60;;;;;;;22.44;50.34;100084.47;5012115;28;20037;-71
2022/05/17 09:38:23;;;;;;;13.02;3.25;;;;;;;22.51;49.12;100085.59;5012192;28;20558;-73
2022/05/17 09:40:51;;;;;;;3.78;1.90;;;;;;;22.65;49.15;100089.66;5011674;28;20052;-70
2022/05/17 09:43:23;;;;;;;7.10;3.17;;;;;;;22.81;48.20;100080.97;5011403;28;20427;-70
2022/05/17 09:45:50;;;;;;;6.85;3.83;;;;;;;22.96;47.35;100085.88;5010751;28;20057;-72
2022/05/17 09:48:30;;;;;;;5.43;2.63;;;;;;;23.12;47.22;100080.72;5011041;28;20490;-72
2022/05/17 09:53:46;;;;;;;4.35;2.40;;;;;;;23.42;46.93;100084.09;5031269;28;20509;-74
2022/05/17 09:56:13;;;;;;;9.65;2.75;;;;;;;23.51;45.16;100075.97;5013053;28;20137;-72
2022/05/17 09:58:41;;;;;;;5.50;2.17;;;;;;;23.48;44.55;100075.41;5013665;28;20495;-71
2022/05/17 10:01:13;;;;;;;3.05;1.85;;;;;;;23.51;43.02;100083.22;5030755;28;20037;-71
2022/05/17 10:03:57;;;;;;;7.07;2.10;;;;;;;23.49;43.06;100075.28;5030950;28;20064;-71
2022/05/17 10:06:32;;;;;;;5.43;2.05;;;;;;;23.46;43.17;100077.44;5030320;28;20744;-71
2022/05/17 10:09:04;;;;;;;4.75;1.92;;;;;;;23.31;43.19;100069.88;5031066;28;20550;-71
2022/05/17 10:11:52;;;;;;;4.45;2.05;;;;;;;23.31;43.00;100072.56;5031123;28;20406;-70
2022/05/17 10:14:23;;;;;;;9.77;2.38;;;;;;;23.32;44.22;100068.03;5028104;28;20030;-71
2022/05/17 10:16:55;;;;;;;12.15;2.10;;;;;;;23.40;42.94;100065.41;5015074;28;20789;-70
2022/05/17 10:19:46;;;;;;;4.03;1.90;;;;;;;23.40;44.17;100068.09;5010946;28;20459;-72
2022/05/17 10:22:26;;;;;;;8.90;2.25;;;;;;;23.45;43.23;100060.41;5005177;28;20406;-70
2022/05/17 10:24:57;;;;;;;4.43;2.78;;;;;;;23.67;42.34;100052.91;5009842;28;20034;-72
2022/05/17 10:27:46;;;;;;;6.40;2.28;;;;;;;24.08;42.05;100053.31;5010452;28;20117;-72
2022/05/17 10:30:16;;;;;;;7.20;1.90;;;;;;;24.14;41.46;100050.81;5010605;28;20037;-71
2022/05/17 10:32:59;;;;;;;3.97;1.98;;;;;;;24.43;40.54;100045.13;5011023;28;20488;-71
2022/05/17 10:35:42;;;;;;;4.53;1.80;;;;;;;25.12;39.34;100044.34;5030978;28;20029;-71
2022/05/17 10:38:11;;;;;;;3.58;1.75;;;;;;;25.32;38.02;100039.53;5027710;28;20407;-72
2022/05/17 10:40:43;;;;;;;4.28;2.00;;;;;;;25.17;38.98;100039.31;5030597;28;20403;-70
2022/05/17 10:43:11;;;;;;;6.85;2.40;;;;;;;25.66;37.67;100034.03;5030215;28;20043;-71
2022/05/17 10:45:38;;;;;;;4.28;2.20;;;;;;;25.75;37.02;100032.19;5030586;28;20433;-70
2022/05/17 10:48:28;;;;;;;2.88;1.90;;;;;;;25.88;37.62;100024.44;5029257;28;20399;-71
2022/05/17 10:51:22;;;;;;;3.05;1.58;;;;;;;25.87;36.14;100020.91;5030443;28;20060;-71
2022/05/17 10:54:24;;;;;;;2.95;1.63;;;;;;;26.07;36.59;100020.56;5029934;28;20037;-71
2022/05/17 10:57:07;;;;;;;2.95;1.60;;;;;;;26.20;36.35;100012.78;5009783;28;20140;-72
2022/05/17 10:59:42;;;;;;;3.33;1.85;;;;;;;26.30;36.68;100018.00;5029783;28;20406;-71
2022/05/17 11:02:27;;;;;;;5.25;2.15;;;;;;;26.37;35.49;100019.00;5030170;28;20513;-71
2022/05/17 11:05:15;;;;;;;8.32;2.22;;;;;;;26.25;35.63;100020.38;5030107;28;20072;-71
2022/05/17 11:07:49;;;;;;;3.83;2.38;;;;;;;26.18;36.71;100022.06;5032773;28;20037;-71
2022/05/17 11:10:30;;;;;;;3.45;2.40;;;;;;;26.27;35.83;100013.78;5030219;28;20041;-71
2022/05/17 11:13:08;;;;;;;6.07;2.08;;;;;;;26.39;35.78;100003.47;5030576;28;20398;-70
2022/05/17 11:15:38;;;;;;;5.15;2.13;;;;;;;26.43;35.43;100012.88;5027125;28;20029;-70
2022/05/17 11:18:34;;;;;;;5.68;1.98;;;;;;;26.38;35.30;100009.84;5029591;28;20049;-70
2022/05/17 11:21:04;;;;;;;4.95;2.47;;;;;;;26.19;34.98;99999.41;4968261;28;20034;-71
2022/05/17 11:23:55;;;;;;;4.03;1.92;;;;;;;26.24;34.58;100005.19;5010019;28;20147;-71
2022/05/17 11:26:52;;;;;;;5.72;1.80;;;;;;;26.10;35.18;99995.91;5003557;28;20106;-70
2022/05/17 11:29:23;;;;;;;2.65;1.80;;;;;;;26.12;36.49;99991.19;4997825;28;20651;-71
2022/05/17 11:31:55;;;;;;;4.32;2.40;;;;;;;26.08;35.57;99995.22;4990960;28;20038;-71
2022/05/17 11:34:31;;;;;;;4.10;2.00;;;;;;;25.88;36.19;100003.69;4991399;28;20038;-70
2022/05/17 11:36:59;;;;;;;4.32;2.10;;;;;;;25.71;36.16;99992.00;5009605;28;20399;-70
2022/05/17 11:39:31;;;;;;;2.72;1.65;;;;;;;25.81;36.62;99994.53;5030066;28;20057;-71
2022/05/17 11:42:07;;;;;;;7.00;4.20;;;;;;;25.95;36.01;99987.66;4965462;28;20039;-71
2022/05/17 11:44:44;;;;;;;7.53;3.17;;;;;;;25.94;35.74;99980.53;5010282;28;20034;-69
2022/05/17 11:47:31;;;;;;;6.05;2.10;;;;;;;25.68;36.76;99986.09;4995583;28;20037;-72
2022/05/17 11:50:15;;;;;;;3.72;1.98;;;;;;;25.70;36.44;99987.63;5009789;28;20049;-72